sensor_id;sensor_type;location;lat;lon;timestamp;P1;durP1;ratioP1;P2;durP2;ratioP2
75413;SDS011;64758;52.122;5.404;2023-02-20T00:00:09;7.47;;;4.10;;
75413;SDS011;64758;52.122;5.404;2023-02-20T00:02:42;9.25;;;4.63;;
75413;SDS011;64758;52.122;5.404;2023-02-20T00:05:08;10.07;;;4.75;;
75413;SDS011;64758;52.122;5.404;2023-02-20T00:07:38;10.93;;;5.20;;
75413;SDS011;64758;52.122;5.404;2023-02-20T00:10:05;10.70;;;4.90;;
75413;SDS011;64758;52.122;5.404;2023-02-20T00:12:32;11.20;;;5.32;;
75413;SDS011;64758;52.122;5.404;2023-02-20T00:14:59;9.25;;;5.00;;
75413;SDS011;64758;52.122;5.404;2023-02-20T00:17:25;9.60;;;4.70;;
75413;SDS011;64758;52.122;5.404;2023-02-20T00:19:53;9.85;;;4.60;;
75413;SDS011;64758;52.122;5.404;2023-02-20T00:22:21;10.73;;;4.93;;
75413;SDS011;64758;52.122;5.404;2023-02-20T00:24:48;10.73;;;4.80;;
75413;SDS011;64758;52.122;5.404;2023-02-20T00:27:15;11.68;;;4.50;;
75413;SDS011;64758;52.122;5.404;2023-02-20T00:29:43;13.93;;;5.47;;
75413;SDS011;64758;52.122;5.404;2023-02-20T00:32:10;11.55;;;5.72;;
75413;SDS011;64758;52.122;5.404;2023-02-20T00:34:37;12.10;;;5.37;;
75413;SDS011;64758;52.122;5.404;2023-02-20T00:37:04;10.30;;;5.20;;
75413;SDS011;64758;52.122;5.404;2023-02-20T00:39:31;9.63;;;5.38;;
75413;SDS011;64758;52.122;5.404;2023-02-20T00:41:57;12.98;;;5.65;;
75413;SDS011;64758;52.122;5.404;2023-02-20T00:44:24;10.10;;;5.00;;
75413;SDS011;64758;52.122;5.404;2023-02-20T00:46:51;10.17;;;5.20;;
75413;SDS011;64758;52.122;5.404;2023-02-20T00:49:17;10.13;;;5.18;;
75413;SDS011;64758;52.122;5.404;2023-02-20T00:51:44;10.57;;;5.53;;
75413;SDS011;64758;52.122;5.404;2023-02-20T00:54:10;10.27;;;5.35;;
75413;SDS011;64758;52.122;5.404;2023-02-20T00:56:37;11.90;;;6.15;;
75413;SDS011;64758;52.122;5.404;2023-02-20T00:59:03;11.43;;;5.80;;
75413;SDS011;64758;52.122;5.404;2023-02-20T01:01:30;9.55;;;5.88;;
75413;SDS011;64758;52.122;5.404;2023-02-20T01:03:57;12.52;;;6.47;;
75413;SDS011;64758;52.122;5.404;2023-02-20T01:06:23;11.40;;;5.78;;
75413;SDS011;64758;52.122;5.404;2023-02-20T01:08:50;13.00;;;6.32;;
75413;SDS011;64758;52.122;5.404;2023-02-20T01:11:17;13.20;;;5.80;;
75413;SDS011;64758;52.122;5.404;2023-02-20T01:13:43;18.05;;;6.85;;
75413;SDS011;64758;52.122;5.404;2023-02-20T01:16:10;12.00;;;6.72;;
75413;SDS011;64758;52.122;5.404;2023-02-20T01:18:37;13.35;;;6.43;;
75413;SDS011;64758;52.122;5.404;2023-02-20T01:21:03;11.75;;;6.85;;
75413;SDS011;64758;52.122;5.404;2023-02-20T01:23:30;13.77;;;7.43;;
75413;SDS011;64758;52.122;5.404;2023-02-20T01:25:56;11.70;;;6.80;;
75413;SDS011;64758;52.122;5.404;2023-02-20T01:28:23;14.05;;;7.35;;
75413;SDS011;64758;52.122;5.404;2023-02-20T01:30:49;14.48;;;6.78;;
75413;SDS011;64758;52.122;5.404;2023-02-20T01:33:16;15.30;;;7.07;;
75413;SDS011;64758;52.122;5.404;2023-02-20T01:35:42;14.63;;;7.10;;
75413;SDS011;64758;52.122;5.404;2023-02-20T01:38:09;14.60;;;7.63;;
75413;SDS011;64758;52.122;5.404;2023-02-20T01:40:35;14.00;;;7.65;;
75413;SDS011;64758;52.122;5.404;2023-02-20T01:43:02;11.05;;;6.60;;
75413;SDS011;64758;52.122;5.404;2023-02-20T01:45:32;13.95;;;7.28;;
75413;SDS011;64758;52.122;5.404;2023-02-20T01:48:00;9.83;;;6.70;;
75413;SDS011;64758;52.122;5.404;2023-02-20T01:50:31;11.68;;;7.53;;
75413;SDS011;64758;52.122;5.404;2023-02-20T01:53:06;13.57;;;7.82;;
75413;SDS011;64758;52.122;5.404;2023-02-20T01:58:35;13.80;;;8.05;;
75413;SDS011;64758;52.122;5.404;2023-02-20T02:01:06;12.53;;;6.90;;
75413;SDS011;64758;52.122;5.404;2023-02-20T02:03:34;14.90;;;7.60;;
75413;SDS011;64758;52.122;5.404;2023-02-20T02:06:05;16.77;;;8.82;;
75413;SDS011;64758;52.122;5.404;2023-02-20T02:08:36;18.52;;;7.85;;
75413;SDS011;64758;52.122;5.404;2023-02-20T02:11:05;17.85;;;8.00;;
75413;SDS011;64758;52.122;5.404;2023-02-20T02:13:36;21.20;;;8.57;;
75413;SDS011;64758;52.122;5.404;2023-02-20T02:30:39;20.17;;;10.20;;
75413;SDS011;64758;52.122;5.404;2023-02-20T02:39:00;24.20;;;11.55;;
75413;SDS011;64758;52.122;5.404;2023-02-20T02:47:03;26.35;;;11.77;;
75413;SDS011;64758;52.122;5.404;2023-02-20T02:49:42;25.77;;;12.18;;
75413;SDS011;64758;52.122;5.404;2023-02-20T02:52:16;25.45;;;12.77;;
75413;SDS011;64758;52.122;5.404;2023-02-20T02:55:04;23.37;;;11.40;;
75413;SDS011;64758;52.122;5.404;2023-02-20T02:57:32;22.83;;;11.38;;
75413;SDS011;64758;52.122;5.404;2023-02-20T03:00:04;26.30;;;12.70;;
75413;SDS011;64758;52.122;5.404;2023-02-20T03:02:49;22.88;;;12.00;;
75413;SDS011;64758;52.122;5.404;2023-02-20T03:05:29;23.45;;;11.32;;
75413;SDS011;64758;52.122;5.404;2023-02-20T03:08:17;29.47;;;13.03;;
75413;SDS011;64758;52.122;5.404;2023-02-20T03:11:06;24.58;;;12.27;;
75413;SDS011;64758;52.122;5.404;2023-02-20T03:13:39;32.65;;;12.90;;
75413;SDS011;64758;52.122;5.404;2023-02-20T03:16:31;26.52;;;12.55;;
75413;SDS011;64758;52.122;5.404;2023-02-20T03:19:24;26.17;;;12.13;;
75413;SDS011;64758;52.122;5.404;2023-02-20T03:21:57;29.23;;;12.60;;
75413;SDS011;64758;52.122;5.404;2023-02-20T03:24:26;32.20;;;13.55;;
75413;SDS011;64758;52.122;5.404;2023-02-20T03:26:55;29.60;;;13.63;;
75413;SDS011;64758;52.122;5.404;2023-02-20T03:29:26;29.88;;;13.07;;
75413;SDS011;64758;52.122;5.404;2023-02-20T03:32:00;27.40;;;12.45;;
75413;SDS011;64758;52.122;5.404;2023-02-20T03:34:55;27.97;;;12.67;;
75413;SDS011;64758;52.122;5.404;2023-02-20T03:37:41;24.42;;;12.35;;
75413;SDS011;64758;52.122;5.404;2023-02-20T03:40:29;28.13;;;12.05;;
75413;SDS011;64758;52.122;5.404;2023-02-20T03:43:16;31.52;;;12.63;;
75413;SDS011;64758;52.122;5.404;2023-02-20T03:45:51;26.73;;;13.48;;
75413;SDS011;64758;52.122;5.404;2023-02-20T03:50:50;27.83;;;12.98;;
75413;SDS011;64758;52.122;5.404;2023-02-20T03:53:17;27.30;;;11.70;;
75413;SDS011;64758;52.122;5.404;2023-02-20T03:55:44;28.33;;;12.85;;
75413;SDS011;64758;52.122;5.404;2023-02-20T03:58:12;24.40;;;11.27;;
75413;SDS011;64758;52.122;5.404;2023-02-20T04:00:43;31.17;;;12.73;;
75413;SDS011;64758;52.122;5.404;2023-02-20T04:03:20;35.05;;;12.77;;
75413;SDS011;64758;52.122;5.404;2023-02-20T04:05:49;29.05;;;12.32;;
75413;SDS011;64758;52.122;5.404;2023-02-20T04:11:02;26.73;;;12.55;;
75413;SDS011;64758;52.122;5.404;2023-02-20T04:13:34;31.47;;;11.57;;
75413;SDS011;64758;52.122;5.404;2023-02-20T04:16:03;29.52;;;13.25;;
75413;SDS011;64758;52.122;5.404;2023-02-20T04:18:30;34.70;;;13.82;;
75413;SDS011;64758;52.122;5.404;2023-02-20T04:20:58;31.30;;;12.93;;
75413;SDS011;64758;52.122;5.404;2023-02-20T04:23:27;28.55;;;13.25;;
75413;SDS011;64758;52.122;5.404;2023-02-20T04:25:57;29.20;;;13.40;;
75413;SDS011;64758;52.122;5.404;2023-02-20T04:28:27;27.15;;;13.10;;
75413;SDS011;64758;52.122;5.404;2023-02-20T04:30:55;32.15;;;13.50;;
75413;SDS011;64758;52.122;5.404;2023-02-20T04:33:21;32.72;;;13.40;;
75413;SDS011;64758;52.122;5.404;2023-02-20T04:35:48;28.42;;;13.05;;
75413;SDS011;64758;52.122;5.404;2023-02-20T04:38:15;31.13;;;13.03;;
75413;SDS011;64758;52.122;5.404;2023-02-20T04:40:41;29.52;;;13.05;;
75413;SDS011;64758;52.122;5.404;2023-02-20T04:43:08;29.45;;;13.43;;
75413;SDS011;64758;52.122;5.404;2023-02-20T04:45:34;33.50;;;13.75;;
75413;SDS011;64758;52.122;5.404;2023-02-20T04:48:01;27.92;;;13.35;;
75413;SDS011;64758;52.122;5.404;2023-02-20T04:50:29;35.40;;;13.87;;
75413;SDS011;64758;52.122;5.404;2023-02-20T04:52:57;30.83;;;13.25;;
75413;SDS011;64758;52.122;5.404;2023-02-20T04:55:24;38.35;;;13.85;;
75413;SDS011;64758;52.122;5.404;2023-02-20T04:57:52;30.70;;;14.40;;
75413;SDS011;64758;52.122;5.404;2023-02-20T05:00:21;29.13;;;13.30;;
75413;SDS011;64758;52.122;5.404;2023-02-20T05:02:49;30.13;;;13.73;;
75413;SDS011;64758;52.122;5.404;2023-02-20T05:07:45;30.25;;;13.90;;
75413;SDS011;64758;52.122;5.404;2023-02-20T05:10:15;35.20;;;14.48;;
75413;SDS011;64758;52.122;5.404;2023-02-20T05:12:45;27.35;;;13.10;;
75413;SDS011;64758;52.122;5.404;2023-02-20T05:15:12;31.17;;;13.40;;
75413;SDS011;64758;52.122;5.404;2023-02-20T05:17:39;31.77;;;13.25;;
75413;SDS011;64758;52.122;5.404;2023-02-20T05:20:06;37.53;;;14.35;;
75413;SDS011;64758;52.122;5.404;2023-02-20T05:22:33;30.60;;;13.07;;
75413;SDS011;64758;52.122;5.404;2023-02-20T05:25:00;30.52;;;13.90;;
75413;SDS011;64758;52.122;5.404;2023-02-20T05:27:26;28.33;;;12.53;;
75413;SDS011;64758;52.122;5.404;2023-02-20T05:29:54;25.38;;;12.23;;
75413;SDS011;64758;52.122;5.404;2023-02-20T05:32:22;31.30;;;12.25;;
75413;SDS011;64758;52.122;5.404;2023-02-20T05:34:50;29.35;;;11.88;;
75413;SDS011;64758;52.122;5.404;2023-02-20T05:37:18;29.13;;;11.18;;
75413;SDS011;64758;52.122;5.404;2023-02-20T05:39:45;29.20;;;11.87;;
75413;SDS011;64758;52.122;5.404;2023-02-20T05:42:12;29.08;;;12.07;;
75413;SDS011;64758;52.122;5.404;2023-02-20T05:44:40;26.35;;;12.07;;
75413;SDS011;64758;52.122;5.404;2023-02-20T05:47:06;24.45;;;11.25;;
75413;SDS011;64758;52.122;5.404;2023-02-20T05:49:33;27.58;;;11.18;;
75413;SDS011;64758;52.122;5.404;2023-02-20T05:52:01;24.93;;;10.87;;
75413;SDS011;64758;52.122;5.404;2023-02-20T05:54:29;22.35;;;11.00;;
75413;SDS011;64758;52.122;5.404;2023-02-20T05:56:55;28.90;;;10.82;;
75413;SDS011;64758;52.122;5.404;2023-02-20T05:59:22;26.15;;;10.07;;
75413;SDS011;64758;52.122;5.404;2023-02-20T06:01:49;26.13;;;10.68;;
75413;SDS011;64758;52.122;5.404;2023-02-20T06:04:22;25.87;;;10.70;;
75413;SDS011;64758;52.122;5.404;2023-02-20T06:06:48;23.45;;;10.07;;
75413;SDS011;64758;52.122;5.404;2023-02-20T06:09:15;27.05;;;9.70;;
75413;SDS011;64758;52.122;5.404;2023-02-20T06:11:47;32.25;;;10.75;;
75413;SDS011;64758;52.122;5.404;2023-02-20T06:14:19;20.42;;;8.90;;
75413;SDS011;64758;52.122;5.404;2023-02-20T06:16:46;21.20;;;8.63;;
75413;SDS011;64758;52.122;5.404;2023-02-20T06:19:20;19.52;;;8.55;;
75413;SDS011;64758;52.122;5.404;2023-02-20T06:21:48;17.88;;;8.25;;
75413;SDS011;64758;52.122;5.404;2023-02-20T06:24:16;18.00;;;8.23;;
75413;SDS011;64758;52.122;5.404;2023-02-20T06:26:43;23.05;;;7.55;;
75413;SDS011;64758;52.122;5.404;2023-02-20T06:29:11;14.17;;;7.83;;
75413;SDS011;64758;52.122;5.404;2023-02-20T06:31:39;23.05;;;7.65;;
75413;SDS011;64758;52.122;5.404;2023-02-20T06:34:07;22.15;;;8.32;;
75413;SDS011;64758;52.122;5.404;2023-02-20T06:36:36;21.02;;;9.02;;
75413;SDS011;64758;52.122;5.404;2023-02-20T06:39:04;15.70;;;8.10;;
75413;SDS011;64758;52.122;5.404;2023-02-20T06:41:33;18.10;;;7.77;;
75413;SDS011;64758;52.122;5.404;2023-02-20T06:44:00;18.02;;;8.10;;
75413;SDS011;64758;52.122;5.404;2023-02-20T06:46:26;23.02;;;8.10;;
75413;SDS011;64758;52.122;5.404;2023-02-20T06:48:54;18.70;;;8.20;;
75413;SDS011;64758;52.122;5.404;2023-02-20T06:51:24;16.77;;;8.32;;
75413;SDS011;64758;52.122;5.404;2023-02-20T06:53:53;20.67;;;7.95;;
75413;SDS011;64758;52.122;5.404;2023-02-20T06:56:22;12.85;;;7.72;;
75413;SDS011;64758;52.122;5.404;2023-02-20T06:58:50;22.63;;;8.00;;
75413;SDS011;64758;52.122;5.404;2023-02-20T07:01:19;22.77;;;7.53;;
75413;SDS011;64758;52.122;5.404;2023-02-20T07:03:47;18.83;;;7.00;;
75413;SDS011;64758;52.122;5.404;2023-02-20T07:06:15;18.57;;;6.77;;
75413;SDS011;64758;52.122;5.404;2023-02-20T07:08:42;12.60;;;7.50;;
75413;SDS011;64758;52.122;5.404;2023-02-20T07:11:09;17.80;;;7.30;;
75413;SDS011;64758;52.122;5.404;2023-02-20T07:13:36;17.92;;;6.97;;
75413;SDS011;64758;52.122;5.404;2023-02-20T07:16:02;16.20;;;7.05;;
75413;SDS011;64758;52.122;5.404;2023-02-20T07:18:29;21.87;;;6.60;;
75413;SDS011;64758;52.122;5.404;2023-02-20T07:20:56;19.08;;;6.40;;
75413;SDS011;64758;52.122;5.404;2023-02-20T07:23:22;15.00;;;6.38;;
75413;SDS011;64758;52.122;5.404;2023-02-20T07:25:49;13.35;;;5.75;;
75413;SDS011;64758;52.122;5.404;2023-02-20T07:28:16;16.33;;;6.82;;
75413;SDS011;64758;52.122;5.404;2023-02-20T07:30:45;16.52;;;5.97;;
75413;SDS011;64758;52.122;5.404;2023-02-20T07:33:14;16.92;;;6.50;;
75413;SDS011;64758;52.122;5.404;2023-02-20T07:35:42;15.30;;;6.50;;
75413;SDS011;64758;52.122;5.404;2023-02-20T07:38:09;13.73;;;5.82;;
75413;SDS011;64758;52.122;5.404;2023-02-20T07:40:36;15.60;;;6.10;;
75413;SDS011;64758;52.122;5.404;2023-02-20T07:43:05;17.60;;;5.70;;
75413;SDS011;64758;52.122;5.404;2023-02-20T07:45:32;14.52;;;6.40;;
75413;SDS011;64758;52.122;5.404;2023-02-20T07:47:58;14.27;;;5.95;;
75413;SDS011;64758;52.122;5.404;2023-02-20T07:50:25;17.67;;;6.60;;
75413;SDS011;64758;52.122;5.404;2023-02-20T07:52:51;17.25;;;5.68;;
75413;SDS011;64758;52.122;5.404;2023-02-20T07:55:18;17.63;;;6.60;;
75413;SDS011;64758;52.122;5.404;2023-02-20T07:57:45;19.15;;;6.35;;
75413;SDS011;64758;52.122;5.404;2023-02-20T08:00:14;16.63;;;6.80;;
75413;SDS011;64758;52.122;5.404;2023-02-20T08:02:42;16.98;;;6.35;;
75413;SDS011;64758;52.122;5.404;2023-02-20T08:05:09;17.65;;;6.75;;
75413;SDS011;64758;52.122;5.404;2023-02-20T08:07:36;14.40;;;6.20;;
75413;SDS011;64758;52.122;5.404;2023-02-20T08:10:03;21.13;;;6.38;;
75413;SDS011;64758;52.122;5.404;2023-02-20T08:12:30;17.25;;;6.38;;
75413;SDS011;64758;52.122;5.404;2023-02-20T08:14:57;14.00;;;5.95;;
75413;SDS011;64758;52.122;5.404;2023-02-20T08:17:23;16.33;;;5.90;;
75413;SDS011;64758;52.122;5.404;2023-02-20T08:19:59;15.93;;;6.70;;
75413;SDS011;64758;52.122;5.404;2023-02-20T08:22:26;19.00;;;6.53;;
75413;SDS011;64758;52.122;5.404;2023-02-20T08:25:06;15.30;;;5.82;;
75413;SDS011;64758;52.122;5.404;2023-02-20T08:27:33;17.70;;;7.13;;
75413;SDS011;64758;52.122;5.404;2023-02-20T08:30:04;19.33;;;6.85;;
75413;SDS011;64758;52.122;5.404;2023-02-20T08:32:31;14.50;;;5.93;;
75413;SDS011;64758;52.122;5.404;2023-02-20T08:34:58;18.83;;;6.65;;
75413;SDS011;64758;52.122;5.404;2023-02-20T08:37:24;15.73;;;6.18;;
75413;SDS011;64758;52.122;5.404;2023-02-20T08:39:51;13.82;;;6.68;;
75413;SDS011;64758;52.122;5.404;2023-02-20T08:42:17;12.43;;;6.28;;
75413;SDS011;64758;52.122;5.404;2023-02-20T08:44:44;20.00;;;6.70;;
75413;SDS011;64758;52.122;5.404;2023-02-20T08:47:10;14.23;;;6.43;;
75413;SDS011;64758;52.122;5.404;2023-02-20T08:49:37;17.75;;;7.03;;
75413;SDS011;64758;52.122;5.404;2023-02-20T08:52:04;17.15;;;7.05;;
75413;SDS011;64758;52.122;5.404;2023-02-20T08:54:31;16.98;;;7.22;;
75413;SDS011;64758;52.122;5.404;2023-02-20T08:56:57;20.27;;;6.67;;
75413;SDS011;64758;52.122;5.404;2023-02-20T08:59:24;14.55;;;6.75;;
75413;SDS011;64758;52.122;5.404;2023-02-20T09:01:50;20.05;;;7.32;;
75413;SDS011;64758;52.122;5.404;2023-02-20T09:04:17;17.02;;;7.22;;
75413;SDS011;64758;52.122;5.404;2023-02-20T09:06:45;18.30;;;8.20;;
75413;SDS011;64758;52.122;5.404;2023-02-20T09:09:12;14.83;;;6.87;;
75413;SDS011;64758;52.122;5.404;2023-02-20T09:11:39;11.30;;;6.60;;
75413;SDS011;64758;52.122;5.404;2023-02-20T09:14:05;25.00;;;7.75;;
75413;SDS011;64758;52.122;5.404;2023-02-20T09:16:32;14.05;;;7.53;;
75413;SDS011;64758;52.122;5.404;2023-02-20T09:18:58;15.70;;;7.30;;
75413;SDS011;64758;52.122;5.404;2023-02-20T09:21:26;20.63;;;8.07;;
75413;SDS011;64758;52.122;5.404;2023-02-20T09:23:55;17.13;;;7.60;;
75413;SDS011;64758;52.122;5.404;2023-02-20T09:26:21;15.43;;;8.25;;
75413;SDS011;64758;52.122;5.404;2023-02-20T09:28:48;16.17;;;8.40;;
75413;SDS011;64758;52.122;5.404;2023-02-20T09:31:15;18.70;;;8.48;;
75413;SDS011;64758;52.122;5.404;2023-02-20T09:33:45;20.47;;;8.87;;
75413;SDS011;64758;52.122;5.404;2023-02-20T09:36:16;16.30;;;8.57;;
75413;SDS011;64758;52.122;5.404;2023-02-20T09:38:43;19.38;;;8.60;;
75413;SDS011;64758;52.122;5.404;2023-02-20T09:41:28;20.60;;;9.35;;
75413;SDS011;64758;52.122;5.404;2023-02-20T09:46:59;18.83;;;9.17;;
75413;SDS011;64758;52.122;5.404;2023-02-20T09:49:33;16.02;;;8.63;;
75413;SDS011;64758;52.122;5.404;2023-02-20T09:52:04;16.63;;;9.48;;
75413;SDS011;64758;52.122;5.404;2023-02-20T09:54:36;22.25;;;10.00;;
75413;SDS011;64758;52.122;5.404;2023-02-20T09:57:15;20.73;;;9.85;;
75413;SDS011;64758;52.122;5.404;2023-02-20T09:59:47;17.17;;;9.40;;
75413;SDS011;64758;52.122;5.404;2023-02-20T10:02:25;21.05;;;9.45;;
75413;SDS011;64758;52.122;5.404;2023-02-20T10:04:56;22.80;;;9.35;;
75413;SDS011;64758;52.122;5.404;2023-02-20T10:09:59;16.05;;;8.57;;
75413;SDS011;64758;52.122;5.404;2023-02-20T10:12:40;16.08;;;8.27;;
75413;SDS011;64758;52.122;5.404;2023-02-20T10:15:23;14.00;;;8.23;;
75413;SDS011;64758;52.122;5.404;2023-02-20T10:26:37;13.33;;;8.00;;
75413;SDS011;64758;52.122;5.404;2023-02-20T10:29:19;11.52;;;7.45;;
75413;SDS011;64758;52.122;5.404;2023-02-20T10:31:53;15.50;;;7.93;;
75413;SDS011;64758;52.122;5.404;2023-02-20T10:37:24;14.40;;;7.15;;
75413;SDS011;64758;52.122;5.404;2023-02-20T10:40:22;13.70;;;6.77;;
75413;SDS011;64758;52.122;5.404;2023-02-20T10:43:03;12.82;;;6.68;;
75413;SDS011;64758;52.122;5.404;2023-02-20T10:48:41;8.65;;;5.35;;
75413;SDS011;64758;52.122;5.404;2023-02-20T10:53:45;13.97;;;6.80;;
75413;SDS011;64758;52.122;5.404;2023-02-20T10:56:19;13.18;;;6.70;;
75413;SDS011;64758;52.122;5.404;2023-02-20T11:01:33;14.15;;;7.50;;
75413;SDS011;64758;52.122;5.404;2023-02-20T11:04:02;17.83;;;7.70;;
75413;SDS011;64758;52.122;5.404;2023-02-20T11:06:35;15.60;;;7.78;;
75413;SDS011;64758;52.122;5.404;2023-02-20T11:09:05;11.45;;;7.75;;
75413;SDS011;64758;52.122;5.404;2023-02-20T11:11:34;12.52;;;7.78;;
75413;SDS011;64758;52.122;5.404;2023-02-20T11:14:12;14.90;;;8.15;;
75413;SDS011;64758;52.122;5.404;2023-02-20T11:19:42;17.00;;;9.40;;
75413;SDS011;64758;52.122;5.404;2023-02-20T11:22:13;13.77;;;9.07;;
75413;SDS011;64758;52.122;5.404;2023-02-20T11:24:42;12.93;;;8.25;;
75413;SDS011;64758;52.122;5.404;2023-02-20T11:27:14;21.33;;;10.43;;
75413;SDS011;64758;52.122;5.404;2023-02-20T11:29:47;14.50;;;9.13;;
75413;SDS011;64758;52.122;5.404;2023-02-20T11:32:28;15.00;;;8.90;;
75413;SDS011;64758;52.122;5.404;2023-02-20T11:35:11;13.38;;;8.68;;
75413;SDS011;64758;52.122;5.404;2023-02-20T11:37:42;12.35;;;8.50;;
75413;SDS011;64758;52.122;5.404;2023-02-20T11:40:23;15.02;;;8.57;;
75413;SDS011;64758;52.122;5.404;2023-02-20T11:42:54;13.18;;;8.70;;
75413;SDS011;64758;52.122;5.404;2023-02-20T11:45:25;13.85;;;8.63;;
75413;SDS011;64758;52.122;5.404;2023-02-20T11:53:06;15.02;;;8.85;;
75413;SDS011;64758;52.122;5.404;2023-02-20T11:55:41;18.48;;;9.38;;
75413;SDS011;64758;52.122;5.404;2023-02-20T11:58:24;16.13;;;9.38;;
75413;SDS011;64758;52.122;5.404;2023-02-20T12:00:53;18.63;;;9.05;;
75413;SDS011;64758;52.122;5.404;2023-02-20T12:03:24;18.35;;;10.02;;
75413;SDS011;64758;52.122;5.404;2023-02-20T12:05:53;15.85;;;9.88;;
75413;SDS011;64758;52.122;5.404;2023-02-20T12:11:07;18.53;;;10.03;;
75413;SDS011;64758;52.122;5.404;2023-02-20T12:13:36;12.50;;;9.02;;
75413;SDS011;64758;52.122;5.404;2023-02-20T12:27:17;17.98;;;11.13;;
75413;SDS011;64758;52.122;5.404;2023-02-20T12:30:00;19.05;;;10.63;;
75413;SDS011;64758;52.122;5.404;2023-02-20T12:35:36;19.13;;;11.57;;
75413;SDS011;64758;52.122;5.404;2023-02-20T12:38:32;19.42;;;10.85;;
75413;SDS011;64758;52.122;5.404;2023-02-20T12:43:49;20.80;;;10.90;;
75413;SDS011;64758;52.122;5.404;2023-02-20T12:52:05;16.42;;;9.52;;
75413;SDS011;64758;52.122;5.404;2023-02-20T13:00:07;19.65;;;9.70;;
75413;SDS011;64758;52.122;5.404;2023-02-20T13:02:49;21.85;;;10.05;;
75413;SDS011;64758;52.122;5.404;2023-02-20T13:05:21;17.10;;;9.38;;
75413;SDS011;64758;52.122;5.404;2023-02-20T13:07:56;17.15;;;9.98;;
75413;SDS011;64758;52.122;5.404;2023-02-20T13:10:31;19.65;;;9.93;;
75413;SDS011;64758;52.122;5.404;2023-02-20T13:12:59;16.83;;;9.82;;
75413;SDS011;64758;52.122;5.404;2023-02-20T13:18:09;22.00;;;9.87;;
75413;SDS011;64758;52.122;5.404;2023-02-20T13:20:47;14.85;;;8.65;;
75413;SDS011;64758;52.122;5.404;2023-02-20T13:25:44;17.13;;;10.05;;
75413;SDS011;64758;52.122;5.404;2023-02-20T13:33:31;14.23;;;9.15;;
75413;SDS011;64758;52.122;5.404;2023-02-20T13:35:58;22.30;;;10.68;;
75413;SDS011;64758;52.122;5.404;2023-02-20T13:38:25;16.70;;;9.88;;
75413;SDS011;64758;52.122;5.404;2023-02-20T13:43:24;19.05;;;11.00;;
75413;SDS011;64758;52.122;5.404;2023-02-20T13:54:15;16.05;;;10.32;;
75413;SDS011;64758;52.122;5.404;2023-02-20T13:56:53;19.03;;;11.53;;
75413;SDS011;64758;52.122;5.404;2023-02-20T13:59:26;19.88;;;12.27;;
75413;SDS011;64758;52.122;5.404;2023-02-20T14:04:21;21.02;;;12.00;;
75413;SDS011;64758;52.122;5.404;2023-02-20T14:06:49;22.65;;;12.05;;
75413;SDS011;64758;52.122;5.404;2023-02-20T14:09:25;16.58;;;10.93;;
75413;SDS011;64758;52.122;5.404;2023-02-20T14:12:06;19.92;;;11.18;;
75413;SDS011;64758;52.122;5.404;2023-02-20T14:14:40;19.23;;;12.05;;
75413;SDS011;64758;52.122;5.404;2023-02-20T14:17:13;20.50;;;12.15;;
75413;SDS011;64758;52.122;5.404;2023-02-20T14:19:45;22.83;;;13.32;;
75413;SDS011;64758;52.122;5.404;2023-02-20T14:22:20;20.30;;;12.48;;
75413;SDS011;64758;52.122;5.404;2023-02-20T14:27:29;16.70;;;11.50;;
75413;SDS011;64758;52.122;5.404;2023-02-20T14:32:30;18.27;;;10.88;;
75413;SDS011;64758;52.122;5.404;2023-02-20T14:40:25;17.25;;;11.27;;
75413;SDS011;64758;52.122;5.404;2023-02-20T14:43:08;17.15;;;11.18;;
75413;SDS011;64758;52.122;5.404;2023-02-20T14:45:40;21.30;;;11.75;;
75413;SDS011;64758;52.122;5.404;2023-02-20T14:48:16;22.02;;;12.00;;
75413;SDS011;64758;52.122;5.404;2023-02-20T14:50:48;20.65;;;11.48;;
75413;SDS011;64758;52.122;5.404;2023-02-20T14:53:27;22.98;;;11.07;;
75413;SDS011;64758;52.122;5.404;2023-02-20T14:55:54;20.10;;;11.65;;
75413;SDS011;64758;52.122;5.404;2023-02-20T14:58:21;19.65;;;11.52;;
75413;SDS011;64758;52.122;5.404;2023-02-20T15:00:50;17.80;;;11.80;;
75413;SDS011;64758;52.122;5.404;2023-02-20T15:03:22;20.05;;;11.68;;
75413;SDS011;64758;52.122;5.404;2023-02-20T15:06:02;18.98;;;11.75;;
75413;SDS011;64758;52.122;5.404;2023-02-20T15:08:34;19.75;;;12.88;;
75413;SDS011;64758;52.122;5.404;2023-02-20T15:11:21;21.42;;;13.05;;
75413;SDS011;64758;52.122;5.404;2023-02-20T15:13:48;21.60;;;13.38;;
75413;SDS011;64758;52.122;5.404;2023-02-20T15:16:22;23.52;;;12.68;;
75413;SDS011;64758;52.122;5.404;2023-02-20T15:18:51;23.35;;;13.15;;
75413;SDS011;64758;52.122;5.404;2023-02-20T15:24:11;24.67;;;14.38;;
75413;SDS011;64758;52.122;5.404;2023-02-20T15:26:49;25.13;;;13.55;;
75413;SDS011;64758;52.122;5.404;2023-02-20T15:31:43;23.17;;;12.93;;
75413;SDS011;64758;52.122;5.404;2023-02-20T15:34:12;27.67;;;14.25;;
75413;SDS011;64758;52.122;5.404;2023-02-20T15:36:43;32.20;;;14.95;;
75413;SDS011;64758;52.122;5.404;2023-02-20T15:39:10;22.47;;;13.27;;
75413;SDS011;64758;52.122;5.404;2023-02-20T15:41:38;25.60;;;13.20;;
75413;SDS011;64758;52.122;5.404;2023-02-20T15:44:05;22.52;;;11.73;;
75413;SDS011;64758;52.122;5.404;2023-02-20T15:46:31;21.45;;;12.32;;
75413;SDS011;64758;52.122;5.404;2023-02-20T15:48:58;24.13;;;13.13;;
75413;SDS011;64758;52.122;5.404;2023-02-20T15:51:27;22.00;;;12.93;;
75413;SDS011;64758;52.122;5.404;2023-02-20T15:53:55;24.38;;;11.85;;
75413;SDS011;64758;52.122;5.404;2023-02-20T15:56:24;20.23;;;11.57;;
75413;SDS011;64758;52.122;5.404;2023-02-20T15:58:55;21.80;;;12.75;;
75413;SDS011;64758;52.122;5.404;2023-02-20T16:01:22;19.92;;;12.38;;
75413;SDS011;64758;52.122;5.404;2023-02-20T16:03:48;20.60;;;12.80;;
75413;SDS011;64758;52.122;5.404;2023-02-20T16:06:19;19.92;;;12.70;;
75413;SDS011;64758;52.122;5.404;2023-02-20T16:08:47;24.30;;;13.90;;
75413;SDS011;64758;52.122;5.404;2023-02-20T16:11:15;22.20;;;12.63;;
75413;SDS011;64758;52.122;5.404;2023-02-20T16:13:44;19.90;;;11.57;;
75413;SDS011;64758;52.122;5.404;2023-02-20T16:18:54;23.27;;;13.65;;
75413;SDS011;64758;52.122;5.404;2023-02-20T16:21:21;23.25;;;13.18;;
75413;SDS011;64758;52.122;5.404;2023-02-20T16:23:49;21.30;;;13.02;;
75413;SDS011;64758;52.122;5.404;2023-02-20T16:26:16;22.80;;;13.18;;
75413;SDS011;64758;52.122;5.404;2023-02-20T16:28:46;20.50;;;13.13;;
75413;SDS011;64758;52.122;5.404;2023-02-20T16:34:19;20.65;;;13.30;;
75413;SDS011;64758;52.122;5.404;2023-02-20T16:36:47;22.33;;;13.88;;
75413;SDS011;64758;52.122;5.404;2023-02-20T16:39:15;22.17;;;13.55;;
75413;SDS011;64758;52.122;5.404;2023-02-20T16:41:51;20.07;;;12.53;;
75413;SDS011;64758;52.122;5.404;2023-02-20T16:46:53;20.90;;;13.02;;
75413;SDS011;64758;52.122;5.404;2023-02-20T16:49:20;19.42;;;12.70;;
75413;SDS011;64758;52.122;5.404;2023-02-20T16:51:46;17.15;;;12.43;;
75413;SDS011;64758;52.122;5.404;2023-02-20T16:54:24;22.33;;;14.77;;
75413;SDS011;64758;52.122;5.404;2023-02-20T16:56:51;19.83;;;12.90;;
75413;SDS011;64758;52.122;5.404;2023-02-20T16:59:17;23.42;;;12.77;;
75413;SDS011;64758;52.122;5.404;2023-02-20T17:01:45;19.00;;;12.73;;
75413;SDS011;64758;52.122;5.404;2023-02-20T17:04:11;20.58;;;12.32;;
75413;SDS011;64758;52.122;5.404;2023-02-20T17:06:39;22.38;;;13.32;;
75413;SDS011;64758;52.122;5.404;2023-02-20T17:09:06;21.65;;;13.88;;
75413;SDS011;64758;52.122;5.404;2023-02-20T17:11:33;22.48;;;13.25;;
75413;SDS011;64758;52.122;5.404;2023-02-20T17:13:59;19.63;;;13.20;;